createdAt,value
2022-12-08T00:47:04.439Z,59.37
2022-12-08T00:49:32.187Z,59.40
2022-12-08T00:51:59.901Z,59.41
2022-12-08T00:54:27.503Z,59.44
2022-12-08T00:56:55.162Z,59.46
2022-12-08T00:59:22.837Z,59.45
2022-12-08T01:47:15.459Z,59.97
2022-12-08T01:49:43.099Z,60.13
2022-12-08T01:52:12.210Z,60.19
2022-12-08T01:54:40.298Z,60.05
2022-12-08T01:57:08.982Z,60.10
2022-12-08T01:59:37.394Z,60.22
2022-12-08T02:46:00.231Z,60.30
2022-12-08T02:48:27.950Z,60.26
2022-12-08T02:50:55.714Z,60.29
2022-12-08T02:53:23.278Z,60.27
2022-12-08T02:55:53.207Z,60.27
2022-12-08T02:58:25.488Z,60.25
2022-12-08T03:46:18.844Z,60.82
2022-12-08T03:48:46.546Z,60.78
2022-12-08T03:51:14.254Z,60.89
2022-12-08T03:53:41.885Z,60.55
2022-12-08T03:56:15.554Z,60.80
2022-12-08T03:58:43.719Z,60.72
2022-12-08T04:45:13.727Z,60.87
2022-12-08T04:47:43.409Z,60.92
2022-12-08T04:50:13.072Z,60.82
2022-12-08T04:52:40.773Z,60.92
2022-12-08T04:55:08.744Z,60.87
2022-12-08T04:57:36.294Z,60.91
2022-12-08T05:31:04.792Z,60.87
2022-12-08T05:33:32.543Z,60.88
2022-12-08T05:36:00.105Z,60.84
2022-12-08T05:38:27.744Z,60.87
2022-12-08T05:40:55.298Z,60.86
2022-12-08T05:43:22.871Z,60.84
2022-12-08T05:45:50.551Z,60.86
2022-12-08T05:48:19.788Z,60.84
2022-12-08T05:50:47.692Z,60.91
2022-12-08T05:53:15.264Z,60.85
2022-12-08T05:55:42.849Z,60.92
2022-12-08T05:58:11.442Z,60.87
2022-12-08T06:00:39.027Z,60.89
2022-12-08T06:03:06.786Z,60.87
2022-12-08T06:05:35.876Z,60.86
2022-12-08T06:08:03.512Z,60.83
2022-12-08T06:10:31.145Z,60.85
2022-12-08T06:12:58.937Z,60.80
2022-12-08T06:15:26.643Z,60.73
2022-12-08T06:17:54.219Z,60.77
2022-12-08T06:20:21.794Z,60.80
2022-12-08T06:22:50.775Z,60.83
2022-12-08T06:25:18.404Z,60.65
2022-12-08T06:27:46.066Z,60.80
2022-12-08T06:30:14.273Z,60.84
2022-12-08T06:32:41.898Z,60.80
2022-12-08T06:35:10.381Z,60.72
2022-12-08T06:37:38.103Z,60.71
2022-12-08T06:40:08.176Z,60.70
2022-12-08T06:42:47.681Z,60.78
2022-12-08T06:45:15.664Z,60.79
2022-12-08T06:47:43.324Z,60.74
2022-12-08T06:50:11.417Z,60.58
2022-12-08T06:52:49.334Z,60.53
2022-12-08T06:55:57.337Z,60.48
2022-12-08T06:58:12.665Z,60.40
2022-12-08T07:00:40.300Z,60.26
2022-12-08T07:03:07.910Z,60.28
2022-12-08T07:05:35.678Z,60.25
2022-12-08T07:08:03.544Z,60.21
2022-12-08T07:10:32.486Z,60.21
2022-12-08T07:13:00.122Z,60.17
2022-12-08T07:15:27.699Z,60.17
2022-12-08T07:17:59.870Z,47.67
2022-12-08T07:20:28.444Z,50.32
2022-12-08T07:22:56.124Z,56.25
2022-12-08T07:25:23.699Z,57.11
2022-12-08T07:27:53.278Z,57.05
2022-12-08T07:30:21.105Z,56.65
2022-12-08T07:32:48.736Z,56.92
2022-12-08T07:35:16.336Z,56.85
2022-12-08T07:37:43.931Z,57.02
2022-12-08T07:40:12.082Z,57.11
2022-12-08T07:42:39.947Z,57.21
2022-12-08T07:45:09.855Z,57.41
2022-12-08T07:47:37.460Z,57.49
2022-12-08T07:50:05.634Z,57.53
2022-12-08T07:52:35.126Z,57.66
2022-12-08T07:55:02.855Z,57.82
2022-12-08T07:57:30.490Z,57.85
2022-12-08T07:59:58.216Z,58.10
2022-12-08T08:02:27.288Z,58.08
2022-12-08T08:04:54.967Z,58.21
2022-12-08T08:07:22.549Z,58.13
2022-12-08T08:09:50.189Z,58.22
2022-12-08T08:12:33.527Z,58.25
2022-12-08T08:15:01.780Z,58.29
2022-12-08T08:17:30.880Z,58.11
2022-12-08T08:19:58.663Z,58.26
2022-12-08T08:22:26.359Z,58.08
2022-12-08T08:24:53.988Z,58.23
2022-12-08T08:27:22.208Z,58.01
2022-12-08T08:29:49.799Z,58.12
2022-12-08T08:32:17.418Z,58.06
2022-12-08T08:34:46.372Z,58.01
2022-12-08T08:37:14.317Z,57.91
2022-12-08T08:39:43.321Z,57.95
2022-12-08T08:42:10.857Z,58.05
2022-12-08T08:44:38.940Z,57.99
2022-12-08T08:47:06.708Z,58.21
2022-12-08T08:49:34.442Z,58.04
2022-12-08T08:52:03.638Z,58.07
2022-12-08T08:54:31.369Z,58.11
2022-12-08T08:56:59.073Z,58.07
2022-12-08T08:59:26.682Z,58.02
2022-12-08T09:01:54.490Z,58.07
2022-12-08T09:04:22.206Z,57.99
2022-12-08T09:06:49.917Z,57.94
2022-12-08T09:09:18.875Z,58.09
2022-12-08T09:11:46.529Z,58.02
2022-12-08T09:14:14.654Z,57.96
2022-12-08T09:16:42.721Z,58.01
2022-12-08T09:19:10.350Z,57.89
2022-12-08T09:21:37.883Z,57.90
2022-12-08T09:24:06.387Z,57.93
2022-12-08T09:26:35.344Z,57.84
2022-12-08T09:29:02.958Z,57.92
2022-12-08T09:31:30.712Z,57.77
2022-12-08T09:34:01.262Z,57.63
2022-12-08T09:36:29.435Z,57.72
2022-12-08T09:38:57.084Z,57.80
2022-12-08T09:41:32.215Z,57.66
2022-12-08T09:44:08.505Z,57.74
2022-12-08T09:46:36.225Z,57.79
2022-12-08T09:49:03.833Z,57.88
2022-12-08T09:51:32.417Z,57.81
2022-12-08T09:54:01.352Z,57.98
2022-12-08T09:56:30.109Z,57.95
2022-12-08T09:58:59.553Z,57.81
2022-12-08T10:01:29.632Z,57.89
2022-12-08T10:03:57.314Z,57.92
2022-12-08T10:06:26.221Z,57.95
2022-12-08T10:08:56.819Z,57.95
2022-12-08T10:11:25.376Z,57.93
2022-12-08T10:13:54.140Z,58.04
2022-12-08T10:16:29.554Z,57.95
2022-12-08T10:19:01.952Z,57.93
2022-12-08T10:21:29.868Z,57.73
2022-12-08T10:23:59.516Z,57.63
2022-12-08T10:26:27.167Z,57.45
2022-12-08T10:28:57.379Z,57.38
2022-12-08T10:31:25.322Z,57.41
2022-12-08T10:33:54.040Z,57.36
2022-12-08T10:36:23.103Z,57.48
2022-12-08T10:38:50.739Z,57.35
2022-12-08T10:41:18.616Z,57.38
2022-12-08T10:43:47.827Z,57.33
2022-12-08T10:46:15.998Z,57.46
2022-12-08T10:48:53.232Z,57.48
2022-12-08T10:51:25.836Z,57.31
2022-12-08T10:53:53.486Z,57.53
2022-12-08T10:56:21.083Z,57.41
2022-12-08T10:58:48.950Z,57.66
2022-12-08T11:01:18.127Z,57.66
2022-12-08T11:03:46.313Z,57.76
2022-12-08T11:06:16.103Z,57.81
2022-12-08T11:08:49.068Z,57.81
2022-12-08T11:11:17.055Z,57.76
2022-12-08T11:13:44.985Z,57.77
2022-12-08T11:16:13.083Z,57.93
2022-12-08T11:18:41.710Z,57.89
2022-12-08T11:21:11.161Z,57.80
2022-12-08T11:23:38.919Z,57.79
2022-12-08T11:26:09.582Z,57.80
2022-12-08T11:28:37.186Z,57.73
2022-12-08T11:31:06.101Z,57.80
2022-12-08T11:33:34.055Z,57.93
2022-12-08T11:36:02.401Z,57.82
2022-12-08T11:38:30.431Z,57.90
2022-12-08T11:40:59.151Z,57.80
2022-12-08T11:43:30.636Z,57.84
2022-12-08T11:45:59.590Z,57.86
2022-12-08T11:48:28.058Z,57.84
2022-12-08T11:50:56.993Z,57.88
2022-12-08T11:53:26.054Z,58.00
2022-12-08T11:55:54.754Z,57.87
2022-12-08T11:58:23.243Z,57.85
2022-12-08T12:00:52.573Z,57.85
2022-12-08T12:03:22.505Z,57.87
2022-12-08T12:06:13.115Z,57.83
2022-12-08T12:08:43.370Z,57.42
2022-12-08T12:11:11.803Z,57.36
2022-12-08T12:13:53.809Z,57.33
2022-12-08T12:16:39.310Z,57.37
2022-12-08T12:19:10.174Z,57.26
2022-12-08T12:21:38.198Z,57.19
2022-12-08T12:24:06.093Z,57.25
2022-12-08T12:26:37.169Z,57.28
2022-12-08T12:29:05.440Z,57.31
2022-12-08T12:31:34.074Z,57.37
2022-12-08T12:34:06.179Z,57.42
2022-12-08T12:36:46.197Z,57.60
2022-12-08T12:39:13.834Z,57.58
2022-12-08T12:41:44.260Z,57.62
2022-12-08T12:44:25.633Z,57.88
2022-12-08T12:46:57.668Z,57.82
2022-12-08T12:49:48.681Z,57.88
2022-12-08T12:52:31.225Z,57.81
2022-12-08T12:55:13.709Z,57.93
2022-12-08T12:57:50.903Z,57.92
2022-12-08T13:00:19.062Z,57.83
2022-12-08T13:02:48.651Z,57.86
2022-12-08T13:05:17.351Z,57.88
2022-12-08T13:07:45.868Z,57.90
2022-12-08T13:10:17.681Z,57.89
2022-12-08T13:12:46.714Z,57.75
2022-12-08T13:15:17.912Z,57.92
2022-12-08T13:17:45.876Z,57.98
2022-12-08T13:20:18.890Z,57.84
2022-12-08T13:22:47.681Z,57.96
2022-12-08T13:25:36.734Z,57.97
2022-12-08T13:28:14.642Z,57.94
2022-12-08T13:30:43.418Z,57.90
2022-12-08T13:33:18.563Z,57.88
2022-12-08T13:35:48.779Z,57.96
2022-12-08T13:38:17.032Z,57.87
2022-12-08T13:40:44.662Z,57.95
2022-12-08T13:43:17.051Z,57.84
2022-12-08T13:47:02.867Z,57.82
2022-12-08T13:49:32.295Z,57.91
2022-12-08T13:53:34.136Z,57.91
2022-12-08T13:57:08.400Z,57.90
2022-12-08T13:59:43.598Z,57.45
2022-12-08T14:02:15.282Z,57.51
2022-12-08T14:05:16.206Z,57.39
2022-12-08T14:07:32.310Z,57.36
2022-12-08T14:10:00.137Z,57.49
2022-12-08T14:12:27.996Z,57.48
2022-12-08T14:15:04.153Z,57.53
2022-12-08T14:17:32.297Z,57.64
2022-12-08T14:20:00.523Z,57.67
2022-12-08T14:22:33.288Z,57.70
2022-12-08T14:25:01.387Z,57.76
2022-12-08T14:27:30.370Z,57.83
2022-12-08T14:29:59.415Z,57.86
2022-12-08T14:32:28.140Z,57.79
2022-12-08T14:34:56.531Z,57.90
2022-12-08T14:37:24.262Z,57.83
2022-12-08T14:39:51.919Z,57.85
2022-12-08T14:42:22.758Z,57.88
2022-12-08T14:44:52.222Z,57.88
2022-12-08T14:47:22.059Z,57.85
2022-12-08T14:49:49.806Z,57.84
2022-12-08T14:52:17.637Z,57.84
2022-12-08T14:54:45.473Z,57.92
2022-12-08T14:57:13.188Z,57.94
2022-12-08T14:59:40.840Z,57.89
2022-12-08T15:02:22.903Z,57.81
2022-12-08T15:04:57.130Z,57.94
2022-12-08T15:07:25.414Z,57.95
2022-12-08T15:10:07.546Z,57.84
2022-12-08T15:12:35.514Z,57.85
2022-12-08T15:15:03.919Z,57.91
2022-12-08T15:17:33.045Z,57.91
2022-12-08T15:20:02.342Z,57.82
2022-12-08T15:22:30.454Z,57.89
2022-12-08T15:24:58.011Z,57.82
2022-12-08T15:27:25.720Z,57.86
2022-12-08T15:29:53.499Z,57.84
2022-12-08T15:32:21.571Z,57.93
2022-12-08T15:34:49.156Z,57.92
2022-12-08T15:37:20.948Z,57.78
2022-12-08T15:39:48.594Z,57.81
2022-12-08T15:42:16.202Z,57.74
2022-12-08T15:44:43.861Z,57.73
2022-12-08T15:47:13.373Z,57.68
2022-12-08T15:49:41.203Z,57.65
2022-12-08T15:52:12.021Z,57.74
2022-12-08T15:54:41.828Z,57.76
2022-12-08T15:57:20.245Z,57.97
2022-12-08T15:59:52.885Z,58.02
2022-12-08T16:02:22.904Z,57.92
2022-12-08T16:07:39.766Z,57.75
2022-12-08T16:10:09.534Z,57.33
2022-12-08T16:13:54.978Z,57.33
2022-12-08T16:15:59.056Z,57.52
2022-12-08T16:18:28.050Z,57.07
2022-12-08T16:23:45.022Z,57.09
2022-12-08T16:26:28.598Z,56.92
2022-12-08T16:29:03.439Z,56.89
2022-12-08T16:31:31.089Z,56.76
2022-12-08T16:33:58.729Z,56.91
2022-12-08T16:36:26.317Z,56.81
2022-12-08T16:38:54.049Z,56.75
2022-12-08T16:41:40.278Z,56.59
2022-12-08T16:44:07.927Z,56.62
2022-12-08T16:46:36.320Z,56.48
2022-12-08T16:49:04.046Z,56.47
2022-12-08T16:51:31.671Z,56.49
2022-12-08T16:53:59.244Z,56.31
2022-12-08T16:56:32.512Z,56.34
2022-12-08T16:59:01.081Z,56.39
2022-12-08T17:01:28.750Z,56.45
2022-12-08T17:04:29.328Z,56.40
2022-12-08T17:06:44.288Z,56.47
2022-12-08T17:09:11.894Z,56.48
2022-12-08T17:11:43.354Z,56.38
2022-12-08T17:14:11.736Z,56.45
2022-12-08T17:16:39.499Z,56.39
2022-12-08T17:19:07.170Z,56.38
2022-12-08T17:21:35.287Z,56.30
2022-12-08T17:24:03.207Z,56.25
2022-12-08T17:26:30.814Z,56.26
2022-12-08T17:29:01.260Z,56.14
2022-12-08T17:31:30.359Z,56.05
2022-12-08T17:33:58.992Z,56.02
2022-12-08T17:36:26.834Z,55.92
2022-12-08T17:38:54.716Z,55.93
2022-12-08T17:41:22.296Z,56.09
2022-12-08T17:43:49.950Z,55.99
2022-12-08T17:46:19.556Z,56.16
2022-12-08T17:48:47.157Z,56.08
2022-12-08T17:51:14.744Z,56.28
2022-12-08T17:53:42.399Z,56.26
2022-12-08T17:56:14.906Z,56.27
2022-12-08T17:58:42.709Z,56.42
2022-12-08T18:01:10.333Z,56.33
2022-12-08T18:03:39.457Z,56.31
2022-12-08T18:06:07.675Z,56.43
2022-12-08T18:08:35.564Z,56.31
2022-12-08T18:11:03.172Z,56.46
2022-12-08T18:13:30.722Z,56.32
2022-12-08T18:15:58.503Z,56.49
2022-12-08T18:18:26.177Z,56.45
2022-12-08T18:20:55.521Z,56.33
2022-12-08T18:23:23.184Z,56.42
2022-12-08T18:25:51.154Z,56.42
2022-12-08T18:28:18.752Z,56.45
2022-12-08T18:30:46.595Z,56.41
2022-12-08T18:33:14.327Z,56.52
2022-12-08T18:35:42.726Z,56.49
2022-12-08T18:38:11.744Z,56.52
2022-12-08T18:40:39.525Z,56.47
2022-12-08T18:43:07.399Z,56.52
2022-12-08T18:45:36.851Z,56.46
2022-12-08T18:48:05.082Z,56.53
2022-12-08T18:50:32.679Z,56.36
2022-12-08T18:53:00.361Z,56.52
2022-12-08T18:55:29.356Z,56.24
2022-12-08T18:57:57.057Z,56.27
2022-12-08T19:00:24.758Z,55.91
2022-12-08T19:02:52.641Z,56.05
2022-12-08T19:05:20.349Z,55.84
2022-12-08T19:07:48.067Z,55.87
2022-12-08T19:10:16.029Z,55.86
2022-12-08T19:12:45.011Z,55.88
2022-12-08T19:15:13.048Z,55.83
2022-12-08T19:17:40.793Z,55.97
2022-12-08T19:20:09.244Z,56.20
2022-12-08T19:22:37.012Z,56.16
2022-12-08T19:25:04.875Z,56.20
2022-12-08T19:27:34.123Z,56.35
2022-12-08T19:30:03.252Z,56.34
2022-12-08T19:32:31.051Z,56.35
2022-12-08T19:34:58.716Z,56.43
2022-12-08T19:37:26.450Z,56.32
2022-12-08T19:40:11.641Z,56.45
2022-12-08T19:42:57.041Z,56.36
2022-12-08T19:45:26.181Z,56.38
2022-12-08T19:47:53.807Z,56.45
2022-12-08T19:50:40.489Z,56.48
2022-12-08T19:53:08.755Z,56.42
2022-12-08T19:55:36.414Z,56.49
2022-12-08T19:58:04.135Z,56.48
2022-12-08T20:00:33.185Z,56.49
2022-12-08T20:03:01.659Z,56.40
2022-12-08T20:05:29.308Z,56.38
2022-12-08T20:07:57.187Z,56.15
2022-12-08T20:10:25.417Z,56.11
2022-12-08T20:13:13.265Z,55.98
2022-12-08T20:15:42.354Z,56.14
2022-12-08T20:18:10.148Z,55.99
2022-12-08T20:20:37.805Z,56.06
2022-12-08T20:23:05.423Z,55.94
2022-12-08T20:25:33.070Z,56.11
2022-12-08T20:28:00.697Z,56.14
2022-12-08T20:30:28.580Z,56.21
2022-12-08T20:32:57.620Z,56.13
2022-12-08T20:35:25.217Z,56.24
2022-12-08T20:37:52.866Z,56.30
2022-12-08T20:40:20.733Z,56.38
2022-12-08T20:42:48.396Z,56.50
2022-12-08T20:45:15.972Z,56.55
2022-12-08T20:47:43.818Z,56.46
2022-12-08T20:50:13.075Z,56.43
2022-12-08T20:52:40.900Z,56.28
2022-12-08T20:55:09.110Z,56.40
2022-12-08T20:57:36.776Z,56.47
2022-12-08T21:00:05.150Z,56.38
2022-12-08T21:02:33.385Z,56.32
2022-12-08T21:05:01.349Z,56.35
2022-12-08T21:07:30.850Z,56.46
2022-12-08T21:09:58.575Z,56.68
2022-12-08T21:12:26.604Z,56.28
2022-12-08T21:14:54.420Z,55.44
2022-12-08T21:17:22.390Z,55.16
2022-12-08T21:19:50.214Z,55.08
2022-12-08T21:22:18.076Z,55.59
2022-12-08T21:24:47.067Z,55.95
2022-12-08T21:27:14.731Z,55.24
2022-12-08T21:29:42.575Z,54.88
2022-12-08T21:32:10.504Z,55.01
2022-12-08T21:34:38.532Z,55.38
2022-12-08T21:37:06.192Z,55.20
2022-12-08T21:39:34.001Z,55.29
2022-12-08T21:42:22.732Z,55.33
2022-12-08T21:44:51.199Z,55.39
2022-12-08T21:47:18.834Z,55.29
2022-12-08T21:49:46.517Z,55.31
2022-12-08T21:52:14.579Z,55.25
2022-12-08T21:54:42.575Z,55.30
2022-12-08T21:57:12.488Z,55.37
2022-12-08T21:59:40.302Z,55.33
2022-12-08T22:02:10.417Z,55.24
2022-12-08T22:04:38.721Z,55.28
2022-12-08T22:07:06.946Z,55.45
2022-12-08T22:09:35.053Z,55.46
2022-12-08T22:12:03.205Z,55.52
2022-12-08T22:14:32.632Z,55.35
2022-12-08T22:17:00.564Z,55.21
2022-12-08T22:19:28.709Z,55.38
2022-12-08T22:21:57.041Z,55.17
2022-12-08T22:24:25.225Z,54.99
2022-12-08T22:26:52.978Z,55.04
2022-12-08T22:29:20.683Z,54.98
2022-12-08T22:31:49.828Z,54.88
2022-12-08T22:34:17.629Z,54.93
2022-12-08T22:57:11.569Z,53.30
2022-12-08T22:59:40.964Z,52.75
2022-12-08T23:02:09.114Z,53.13
2022-12-08T23:04:37.146Z,52.96
2022-12-08T23:07:05.173Z,53.43
2022-12-08T23:09:32.790Z,53.28
2022-12-08T23:12:00.430Z,52.72
2022-12-08T23:14:29.514Z,52.60
2022-12-08T23:47:14.530Z,52.87
2022-12-08T23:49:42.158Z,52.74
2022-12-08T23:52:11.833Z,52.59
2022-12-08T23:54:39.708Z,52.48
2022-12-08T23:57:07.367Z,52.85
2022-12-08T23:59:34.981Z,52.80
